Time;durP1;ratioP1;P1;durP2;ratioP2;P2;SDS_P1;SDS_P2;PMS_P1;PMS_P2;Temp;Humidity;BMP_temperature;BMP_pressure;BME280_temperature;BME280_humidity;BME280_pressure;Samples;Min_cycle;Max_cycle;Signal;HPM_P1;HPM_P2
2022/10/15 00:00:46;;;;;;;1.88;1.00;;;20.70;55.90;;;;;;4170291;28;20041;-49
2022/10/15 00:03:09;;;;;;;2.65;1.20;;;20.80;56.00;;;;;;4153112;28;20323;-51
2022/10/15 00:05:31;;;;;;;2.28;0.98;;;20.80;55.80;;;;;;4163930;28;20047;-49
2022/10/15 00:07:54;;;;;;;4.38;1.50;;;20.80;56.00;;;;;;4170684;28;20071;-47
2022/10/15 00:10:17;;;;;;;1.40;0.85;;;20.80;55.60;;;;;;4172184;28;20222;-47
2022/10/15 00:12:40;;;;;;;2.55;1.00;;;20.80;55.80;;;;;;4176640;28;20598;-49
2022/10/15 00:15:04;;;;;;;3.20;0.90;;;20.80;56.30;;;;;;4165350;28;20045;-52
2022/10/15 00:17:27;;;;;;;2.03;0.88;;;20.80;55.50;;;;;;4169950;28;20294;-50
2022/10/15 00:19:49;;;;;;;3.17;1.30;;;20.80;55.70;;;;;;4162261;28;20029;-50
2022/10/15 00:22:12;;;;;;;1.92;1.10;;;20.80;55.70;;;;;;4175962;28;20044;-53
2022/10/15 00:24:35;;;;;;;1.42;0.88;;;20.90;55.80;;;;;;4177539;28;20487;-51
2022/10/15 00:26:58;;;;;;;10.98;1.30;;;20.80;55.60;;;;;;4161613;28;20485;-52
2022/10/15 00:29:20;;;;;;;2.03;1.15;;;20.80;55.40;;;;;;4173073;28;20124;-52
2022/10/15 00:31:43;;;;;;;1.45;0.85;;;20.90;55.40;;;;;;4166375;28;20062;-51
2022/10/15 00:34:06;;;;;;;1.98;0.98;;;20.90;55.50;;;;;;4169556;28;20552;-53
2022/10/15 00:36:35;;;;;;;1.70;0.88;;;20.90;55.50;;;;;;4175669;28;20111;-52
2022/10/15 00:38:59;;;;;;;2.28;0.95;;;20.90;55.30;;;;;;4178094;28;20392;-52
2022/10/15 00:41:23;;;;;;;3.55;1.23;;;20.90;55.10;;;;;;4165876;28;20580;-48
2022/10/15 00:43:47;;;;;;;2.33;1.23;;;20.90;55.00;;;;;;4171399;28;20046;-49
2022/10/15 00:46:26;;;;;;;2.10;0.80;;;20.90;55.00;;;;;;4171479;28;20124;-53
2022/10/15 00:48:55;;;;;;;1.52;0.60;;;21.00;54.90;;;;;;4173319;28;20045;-51
2022/10/15 00:51:19;;;;;;;2.45;0.98;;;21.00;55.10;;;;;;4172026;28;20414;-53
2022/10/15 00:53:41;;;;;;;2.58;1.00;;;21.00;54.90;;;;;;4177246;28;20182;-50
2022/10/15 00:56:04;;;;;;;2.85;1.13;;;21.00;55.00;;;;;;4178276;28;20116;-51
2022/10/15 00:58:30;;;;;;;2.83;1.10;;;21.00;54.80;;;;;;4181599;28;20470;-50
2022/10/15 01:00:56;;;;;;;2.47;0.95;;;21.00;54.80;;;;;;4162228;28;20286;-52
2022/10/15 01:03:18;;;;;;;1.50;0.77;;;21.00;54.80;;;;;;4178931;28;20051;-53
2022/10/15 01:05:42;;;;;;;1.70;0.80;;;21.00;54.90;;;;;;4175595;28;20181;-51
2022/10/15 01:08:05;;;;;;;2.95;1.00;;;21.00;54.90;;;;;;4173657;28;20040;-51
2022/10/15 01:10:41;;;;;;;2.10;0.80;;;21.10;54.90;;;;;;4176725;28;20049;-49
2022/10/15 01:13:04;;;;;;;1.58;0.98;;;21.00;54.90;;;;;;4165508;28;20028;-53
2022/10/15 01:15:26;;;;;;;1.83;0.80;;;21.10;54.90;;;;;;4168432;28;20047;-53
2022/10/15 01:17:52;;;;;;;1.73;0.90;;;21.10;54.90;;;;;;4162483;28;20508;-54
2022/10/15 01:20:45;;;;;;;1.02;0.75;;;21.10;54.80;;;;;;4163502;28;20040;-52
2022/10/15 01:23:19;;;;;;;1.70;0.88;;;21.10;54.70;;;;;;4173590;28;20033;-53
2022/10/15 01:26:03;;;;;;;1.00;0.70;;;21.10;54.60;;;;;;4168047;28;20040;-47
2022/10/15 01:28:42;;;;;;;1.48;0.73;;;21.20;54.60;;;;;;4168275;28;20036;-53
2022/10/15 01:31:37;;;;;;;1.23;0.90;;;21.20;54.60;;;;;;4176742;28;20045;-51
2022/10/15 01:34:20;;;;;;;;;;;21.20;54.60;;;;;;4168404;28;20336;-51
2022/10/15 01:36:51;;;;;;;2.25;1.15;;;21.20;54.60;;;;;;4172576;28;19913;-52
2022/10/15 01:39:22;;;;;;;1.67;0.80;;;21.20;54.30;;;;;;4171346;28;20566;-53
2022/10/15 01:41:51;;;;;;;2.80;1.20;;;21.30;54.30;;;;;;4171639;28;20037;-50
2022/10/15 01:44:19;;;;;;;1.20;0.90;;;21.30;54.30;;;;;;4171308;28;20132;-52
2022/10/15 01:46:48;;;;;;;2.47;0.95;;;21.30;55.00;;;;;;4171997;28;20049;-54
2022/10/15 01:49:13;;;;;;;1.33;0.77;;;21.30;54.30;;;;;;4171971;28;20402;-53
2022/10/15 01:51:38;;;;;;;1.90;0.70;;;21.30;54.30;;;;;;4176060;28;20037;-53
2022/10/15 01:54:04;;;;;;;1.80;0.70;;;21.30;54.40;;;;;;4169559;28;20056;-50
2022/10/15 01:56:27;;;;;;;2.90;1.00;;;21.40;54.50;;;;;;4174989;28;20111;-51
2022/10/15 01:58:53;;;;;;;1.63;0.70;;;21.40;54.30;;;;;;4166550;28;20144;-49
2022/10/15 02:01:16;;;;;;;2.38;0.85;;;21.40;54.30;;;;;;4175718;28;20127;-53
2022/10/15 02:03:49;;;;;;;0.93;0.70;;;21.40;54.30;;;;;;4177666;28;20048;-53
2022/10/15 02:06:18;;;;;;;1.50;0.80;;;21.40;54.30;;;;;;4181964;28;20045;-52
2022/10/15 02:09:21;;;;;;;1.95;0.95;;;21.50;54.30;;;;;;4167323;28;20273;-53
2022/10/15 02:11:53;;;;;;;0.93;0.60;;;21.50;54.30;;;;;;4166050;28;20128;-54
2022/10/15 02:14:27;;;;;;;0.85;0.60;;;21.50;54.20;;;;;;4168944;28;20037;-53
2022/10/15 02:16:58;;;;;;;1.70;0.73;;;21.50;54.10;;;;;;4180823;28;20095;-52
2022/10/15 02:19:51;;;;;;;1.38;0.80;;;21.60;54.20;;;;;;4175101;28;20025;-53
2022/10/15 02:22:18;;;;;;;1.13;0.70;;;21.60;54.20;;;;;;4176792;28;20064;-53
2022/10/15 02:25:06;;;;;;;1.45;0.60;;;21.60;54.10;;;;;;4181510;28;20067;-52
2022/10/15 02:27:32;;;;;;;2.50;1.25;;;21.60;54.00;;;;;;4186541;28;20048;-54
2022/10/15 02:29:56;;;;;;;1.67;1.10;;;21.60;53.90;;;;;;4178345;28;20606;-54
2022/10/15 02:32:20;;;;;;;;;;;21.70;54.00;;;;;;4175340;28;20044;-51
2022/10/15 02:34:45;;;;;;;1.42;0.80;;;21.70;54.70;;;;;;4176707;28;19935;-50
2022/10/15 02:37:09;;;;;;;2.42;1.20;;;21.70;54.00;;;;;;4180552;28;20503;-48
2022/10/15 02:39:33;;;;;;;1.20;0.77;;;21.70;53.90;;;;;;4176803;28;20517;-51
2022/10/15 02:41:56;;;;;;;2.80;0.82;;;21.70;54.00;;;;;;4171480;28;20110;-52
2022/10/15 02:44:18;;;;;;;1.63;0.97;;;21.80;54.00;;;;;;4173726;28;20425;-56
2022/10/15 02:46:41;;;;;;;2.53;0.82;;;21.80;54.00;;;;;;4176727;28;20079;-51
2022/10/15 02:49:04;;;;;;;0.50;0.50;;;21.70;53.90;;;;;;4169427;28;20038;-51
2022/10/15 02:51:26;;;;;;;1.63;0.80;;;21.80;54.00;;;;;;4176534;28;20046;-50
2022/10/15 02:53:49;;;;;;;1.00;0.80;;;21.80;54.00;;;;;;4168474;28;20036;-52
2022/10/15 02:56:11;;;;;;;1.80;0.90;;;21.80;53.90;;;;;;4180552;28;20051;-54
2022/10/15 02:58:34;;;;;;;2.33;0.82;;;21.80;53.90;;;;;;4173116;28;20036;-53
2022/10/15 03:00:56;;;;;;;1.27;0.60;;;21.90;53.90;;;;;;4164842;28;20406;-48
2022/10/15 03:03:19;;;;;;;1.30;0.93;;;21.90;53.80;;;;;;4177989;28;20063;-54
2022/10/15 03:05:42;;;;;;;0.88;0.70;;;21.90;53.90;;;;;;4161972;28;20037;-49
2022/10/15 03:08:05;;;;;;;1.83;0.98;;;21.90;53.90;;;;;;4178791;28;20045;-49
2022/10/15 03:10:28;;;;;;;1.45;0.93;;;21.90;53.90;;;;;;4179256;28;20128;-47
2022/10/15 03:12:50;;;;;;;2.15;0.95;;;21.90;53.90;;;;;;4172080;28;20060;-49
2022/10/15 03:15:13;;;;;;;1.17;0.80;;;21.90;53.90;;;;;;4170066;28;20049;-50
2022/10/15 03:17:35;;;;;;;3.17;0.93;;;22.00;54.00;;;;;;4167589;28;20091;-50
2022/10/15 03:19:58;;;;;;;1.10;0.80;;;22.00;54.00;;;;;;4174853;28;20036;-50
2022/10/15 03:22:20;;;;;;;3.10;0.70;;;22.00;53.90;;;;;;4162958;28;20030;-48
2022/10/15 03:24:43;;;;;;;2.17;0.85;;;22.00;53.80;;;;;;4166397;28;20212;-48
2022/10/15 03:27:05;;;;;;;0.75;0.60;;;22.00;53.80;;;;;;4165665;28;20037;-49
2022/10/15 03:29:28;;;;;;;2.33;1.02;;;22.10;53.60;;;;;;4175925;28;20052;-49
2022/10/15 03:31:51;;;;;;;0.93;0.80;;;22.10;53.50;;;;;;4165819;28;20059;-50
2022/10/15 03:34:14;;;;;;;2.00;1.10;;;22.10;53.50;;;;;;4168119;28;20040;-47
2022/10/15 03:36:36;;;;;;;1.75;0.88;;;22.20;53.40;;;;;;4171102;28;20413;-49
2022/10/15 03:38:59;;;;;;;1.58;0.90;;;22.20;53.40;;;;;;4161727;28;20044;-49
2022/10/15 03:41:21;;;;;;;1.25;0.75;;;22.20;53.30;;;;;;4166063;28;20603;-48
2022/10/15 03:43:44;;;;;;;1.35;0.88;;;22.30;53.10;;;;;;4172568;28;20095;-54
2022/10/15 03:46:07;;;;;;;0.90;0.68;;;22.30;53.00;;;;;;4172875;28;20535;-47
2022/10/15 03:48:29;;;;;;;3.03;0.90;;;22.40;53.00;;;;;;4169201;28;20094;-50
2022/10/15 03:50:52;;;;;;;1.20;0.70;;;22.40;52.90;;;;;;4162109;28;20733;-50
2022/10/15 03:53:14;;;;;;;1.10;0.70;;;22.40;52.70;;;;;;4156142;28;20029;-49
2022/10/15 03:55:37;;;;;;;1.38;0.70;;;22.40;52.70;;;;;;4164213;28;20428;-54
2022/10/15 03:58:00;;;;;;;2.17;0.88;;;22.50;52.70;;;;;;4178704;28;20110;-54
2022/10/15 04:00:22;;;;;;;0.88;0.68;;;22.50;52.50;;;;;;4170393;28;20036;-51
2022/10/15 04:02:45;;;;;;;0.95;0.65;;;22.60;52.50;;;;;;4170702;28;20060;-51
2022/10/15 04:05:08;;;;;;;2.13;0.80;;;22.70;52.50;;;;;;4171118;28;20077;-50
2022/10/15 04:07:30;;;;;;;0.82;0.50;;;22.70;52.30;;;;;;4174198;28;20045;-52
2022/10/15 04:09:53;;;;;;;3.60;1.02;;;22.80;52.10;;;;;;4169376;28;20444;-48
2022/10/15 04:12:16;;;;;;;1.48;0.77;;;22.80;52.00;;;;;;4172342;28;20056;-52
2022/10/15 04:14:40;;;;;;;1.40;0.80;;;22.80;52.10;;;;;;4172178;28;20123;-54
2022/10/15 04:17:02;;;;;;;1.85;0.70;;;22.90;52.10;;;;;;4167622;28;20090;-51
2022/10/15 04:19:25;;;;;;;2.92;1.00;;;23.00;52.10;;;;;;4171762;28;20040;-50
2022/10/15 04:21:48;;;;;;;3.20;1.13;;;23.00;52.00;;;;;;4162171;28;20029;-49
2022/10/15 04:24:10;;;;;;;1.77;0.80;;;23.10;51.90;;;;;;4160551;28;20087;-52
2022/10/15 04:26:33;;;;;;;2.20;0.95;;;23.20;51.80;;;;;;4170869;28;20041;-51
2022/10/15 04:28:55;;;;;;;2.13;0.90;;;23.20;51.70;;;;;;4171408;28;20045;-50
2022/10/15 04:31:18;;;;;;;2.03;1.13;;;23.30;51.60;;;;;;4166743;28;20086;-49
2022/10/15 04:33:41;;;;;;;2.05;0.80;;;23.30;51.50;;;;;;4173084;28;20033;-52
2022/10/15 04:36:06;;;;;;;0.70;0.63;;;23.40;51.40;;;;;;4182354;28;20036;-51
2022/10/15 04:38:29;;;;;;;2.08;1.10;;;23.40;51.50;;;;;;4174667;28;20033;-51
2022/10/15 04:41:03;;;;;;;1.55;0.90;;;23.50;51.40;;;;;;4166303;28;20029;-54
2022/10/15 04:43:25;;;;;;;2.38;0.90;;;23.50;51.20;;;;;;4177769;28;20451;-50
2022/10/15 04:45:48;;;;;;;3.17;1.33;;;23.60;51.20;;;;;;4176792;28;20498;-50
2022/10/15 04:48:10;;;;;;;3.03;1.45;;;23.60;51.10;;;;;;4175998;28;20044;-52
2022/10/15 04:50:33;;;;;;;4.82;0.73;;;23.70;51.10;;;;;;4181263;28;20435;-51
2022/10/15 04:52:55;;;;;;;1.67;0.68;;;23.80;51.10;;;;;;4154402;28;20816;-52
2022/10/15 04:55:18;;;;;;;2.00;0.98;;;23.80;51.00;;;;;;4166817;28;20139;-50
2022/10/15 04:57:40;;;;;;;1.40;0.98;;;23.90;50.90;;;;;;4168441;28;20072;-52
2022/10/15 05:00:04;;;;;;;2.33;1.00;;;24.00;51.00;;;;;;4160782;28;20044;-54
2022/10/15 05:02:27;;;;;;;3.17;0.82;;;24.00;50.90;;;;;;4156255;28;20111;-53
2022/10/15 05:04:49;;;;;;;1.13;0.55;;;24.00;50.80;;;;;;4162286;28;20045;-50
2022/10/15 05:07:12;;;;;;;2.05;1.10;;;24.10;50.70;;;;;;4163262;28;20029;-49
2022/10/15 05:09:34;;;;;;;3.53;1.23;;;24.10;50.60;;;;;;4160987;28;20045;-50
2022/10/15 05:11:57;;;;;;;3.47;0.98;;;24.20;50.60;;;;;;4162734;28;20032;-50
2022/10/15 05:14:19;;;;;;;3.22;0.95;;;24.20;50.50;;;;;;4167488;28;20040;-50
2022/10/15 05:16:42;;;;;;;2.38;1.30;;;24.30;50.50;;;;;;4169183;28;20061;-53
2022/10/15 05:19:07;;;;;;;2.63;0.83;;;24.30;50.40;;;;;;4164008;28;20270;-53
2022/10/15 05:21:30;;;;;;;2.75;0.90;;;24.40;50.40;;;;;;4168793;28;20040;-55
2022/10/15 05:23:53;;;;;;;1.52;0.90;;;24.40;50.20;;;;;;4164198;28;20665;-52
2022/10/15 05:26:26;;;;;;;0.93;0.70;;;24.50;50.20;;;;;;4163766;28;20040;-53
2022/10/15 05:28:50;;;;;;;0.87;0.63;;;24.60;50.40;;;;;;4178332;28;20497;-54
2022/10/15 05:31:18;;;;;;;1.55;1.15;;;24.60;50.30;;;;;;4166669;28;20270;-51
2022/10/15 05:33:42;;;;;;;2.00;0.80;;;24.70;50.20;;;;;;4166596;28;20033;-54
2022/10/15 05:36:16;;;;;;;1.45;0.50;;;24.70;50.00;;;;;;4166825;28;20467;-57
2022/10/15 05:38:39;;;;;;;2.22;1.02;;;24.80;50.10;;;;;;4170316;28;20338;-55
2022/10/15 05:41:02;;;;;;;2.55;1.20;;;24.80;49.80;;;;;;4169852;28;20083;-54
2022/10/15 05:43:24;;;;;;;2.03;0.82;;;24.80;49.70;;;;;;4174915;28;20143;-55
2022/10/15 05:45:47;;;;;;;3.20;1.00;;;24.90;49.80;;;;;;4159470;28;20129;-55
2022/10/15 05:48:09;;;;;;;1.55;0.90;;;24.90;49.70;;;;;;4164297;28;20725;-51
2022/10/15 05:50:32;;;;;;;1.90;0.95;;;25.00;49.50;;;;;;4166754;28;20229;-52
2022/10/15 05:52:54;;;;;;;1.45;0.80;;;25.00;49.60;;;;;;4164228;28;21020;-56
2022/10/15 05:55:17;;;;;;;1.00;0.73;;;25.00;49.40;;;;;;4166338;28;20147;-52
2022/10/15 05:57:40;;;;;;;2.03;1.00;;;25.10;49.50;;;;;;4156007;28;20148;-55
2022/10/15 06:00:07;;;;;;;2.20;0.90;;;25.10;49.50;;;;;;4161540;28;20045;-55
2022/10/15 06:02:30;;;;;;;3.67;1.00;;;25.10;49.40;;;;;;4166888;28;20091;-53
2022/10/15 06:04:55;;;;;;;3.25;1.10;;;25.10;49.40;;;;;;4164240;28;20503;-54
2022/10/15 06:07:17;;;;;;;1.30;0.70;;;25.20;49.60;;;;;;4164294;28;20079;-51
2022/10/15 06:09:40;;;;;;;3.08;1.40;;;25.20;49.40;;;;;;4167794;28;20048;-48
2022/10/15 06:12:02;;;;;;;6.10;1.08;;;25.20;49.30;;;;;;4170319;28;20039;-50
2022/10/15 06:14:25;;;;;;;1.17;0.75;;;25.20;49.20;;;;;;4162034;28;20037;-53
2022/10/15 06:16:49;;;;;;;1.90;0.90;;;25.20;49.20;;;;;;4170705;28;20036;-51
2022/10/15 06:19:11;;;;;;;;;;;25.20;49.30;;;;;;4164662;28;20060;-52
2022/10/15 06:21:33;;;;;;;1.80;0.70;;;25.20;49.30;;;;;;4160964;28;19908;-51
2022/10/15 06:23:56;;;;;;;3.42;1.10;;;25.20;49.30;;;;;;4167117;28;20081;-55
2022/10/15 06:26:19;;;;;;;4.85;1.05;;;25.20;49.30;;;;;;4166222;28;20116;-53
2022/10/15 06:28:41;;;;;;;1.98;1.10;;;25.20;49.20;;;;;;4163433;28;20148;-53
2022/10/15 06:31:05;;;;;;;3.03;1.05;;;25.20;49.20;;;;;;4161762;28;20125;-53
2022/10/15 06:33:28;;;;;;;2.15;0.90;;;25.20;49.40;;;;;;4155701;28;20076;-50
2022/10/15 06:35:51;;;;;;;3.00;1.17;;;25.30;49.60;;;;;;4171455;28;20048;-52
2022/10/15 06:38:13;;;;;;;2.05;0.93;;;25.30;49.60;;;;;;4161562;28;20056;-52
2022/10/15 06:40:38;;;;;;;2.33;0.77;;;25.20;50.10;;;;;;4161679;28;20399;-54
2022/10/15 06:43:09;;;;;;;2.22;1.30;;;25.30;49.50;;;;;;4157767;28;20499;-53
2022/10/15 06:45:32;;;;;;;1.40;0.90;;;25.20;49.40;;;;;;4159669;28;20496;-49
2022/10/15 06:47:54;;;;;;;2.47;0.98;;;25.20;49.10;;;;;;4163881;28;20493;-54
2022/10/15 06:50:17;;;;;;;3.38;1.30;;;25.20;49.10;;;;;;4162433;28;20041;-52
2022/10/15 06:52:39;;;;;;;5.20;1.30;;;25.10;49.20;;;;;;4170709;28;20393;-51
2022/10/15 06:55:02;;;;;;;2.92;0.90;;;25.10;49.30;;;;;;4164635;28;20037;-53
2022/10/15 06:57:26;;;;;;;2.28;0.75;;;25.10;49.50;;;;;;4160693;28;20048;-52
2022/10/15 06:59:48;;;;;;;;;;;25.10;49.60;;;;;;4161588;28;20404;-51
2022/10/15 07:02:13;;;;;;;2.08;1.00;;;25.00;49.70;;;;;;4169998;28;19912;-50
2022/10/15 07:04:35;;;;;;;1.52;0.70;;;25.00;49.70;;;;;;4171315;28;20411;-51
2022/10/15 07:06:58;;;;;;;1.55;0.77;;;25.00;49.80;;;;;;4159866;28;20041;-54
2022/10/15 07:09:20;;;;;;;2.13;0.90;;;24.90;49.80;;;;;;4162495;28;20142;-53
2022/10/15 07:11:43;;;;;;;1.98;0.68;;;24.90;49.80;;;;;;4160360;28;20380;-51
2022/10/15 07:14:08;;;;;;;2.33;1.05;;;24.90;49.80;;;;;;4174913;28;20045;-52
2022/10/15 07:16:31;;;;;;;1.33;0.80;;;24.80;49.90;;;;;;4169133;28;20040;-55
2022/10/15 07:18:54;;;;;;;2.17;1.17;;;24.80;50.10;;;;;;4180472;28;20611;-53
2022/10/15 07:21:16;;;;;;;2.83;1.13;;;24.70;50.20;;;;;;4175739;28;20033;-48
2022/10/15 07:23:39;;;;;;;2.40;1.33;;;24.70;50.50;;;;;;4173547;28;20459;-53
2022/10/15 07:26:02;;;;;;;3.17;1.77;;;24.60;50.60;;;;;;4164552;28;20151;-53
2022/10/15 07:28:25;;;;;;;5.72;2.00;;;24.60;50.70;;;;;;4175193;28;20595;-49
2022/10/15 07:30:48;;;;;;;5.68;1.83;;;24.60;50.80;;;;;;4170218;28;20048;-53
2022/10/15 07:33:10;;;;;;;3.47;1.77;;;24.60;50.80;;;;;;4175211;28;20465;-52
2022/10/15 07:35:33;;;;;;;4.45;1.80;;;24.60;50.80;;;;;;4179908;28;20059;-53
2022/10/15 07:37:55;;;;;;;3.40;1.52;;;24.50;50.80;;;;;;4172548;28;20721;-54
2022/10/15 07:40:18;;;;;;;3.90;1.42;;;24.50;50.90;;;;;;4176239;28;20094;-49
2022/10/15 07:42:41;;;;;;;4.03;1.73;;;24.40;51.00;;;;;;4176473;28;20429;-51
2022/10/15 07:45:04;;;;;;;3.40;1.52;;;24.40;51.10;;;;;;4170216;28;20136;-52
2022/10/15 07:47:26;;;;;;;4.20;1.33;;;24.40;51.30;;;;;;4171870;28;20043;-50
2022/10/15 07:49:49;;;;;;;3.45;1.63;;;24.40;51.30;;;;;;4170232;28;20041;-50
2022/10/15 07:52:12;;;;;;;3.78;1.75;;;24.30;51.40;;;;;;4159104;28;20066;-53
2022/10/15 07:54:35;;;;;;;5.68;2.08;;;24.30;51.60;;;;;;4164622;28;20045;-52
2022/10/15 07:56:57;;;;;;;2.22;1.27;;;24.30;51.70;;;;;;4162297;28;20091;-53
2022/10/15 07:59:20;;;;;;;2.97;1.30;;;24.20;51.70;;;;;;4165872;28;20040;-52
2022/10/15 08:01:42;;;;;;;4.28;1.48;;;24.20;51.90;;;;;;4167399;28;20037;-49
2022/10/15 08:04:05;;;;;;;4.10;1.45;;;24.20;52.00;;;;;;4169773;28;20069;-50
2022/10/15 08:06:28;;;;;;;6.28;1.27;;;24.10;52.00;;;;;;4173784;28;20063;-52
2022/10/15 08:08:50;;;;;;;3.05;1.60;;;24.10;52.00;;;;;;4172312;28;20044;-49
2022/10/15 08:11:15;;;;;;;2.25;1.20;;;24.10;52.20;;;;;;4168293;28;20114;-47
2022/10/15 08:13:40;;;;;;;3.33;1.70;;;24.10;52.20;;;;;;4170934;28;20040;-49
2022/10/15 08:16:02;;;;;;;5.13;1.60;;;24.00;52.10;;;;;;4168122;28;20903;-51
2022/10/15 08:18:25;;;;;;;3.17;1.38;;;24.00;52.30;;;;;;4167615;28;20512;-53
2022/10/15 08:20:48;;;;;;;2.35;1.25;;;24.00;52.40;;;;;;4163519;28;20531;-48
2022/10/15 08:23:16;;;;;;;2.58;1.25;;;24.00;52.50;;;;;;4163624;28;20043;-53
2022/10/15 08:25:40;;;;;;;1.85;1.02;;;24.00;52.50;;;;;;4164192;28;20574;-51
2022/10/15 08:28:02;;;;;;;;;;;24.00;52.60;;;;;;4170497;28;20079;-50
2022/10/15 08:30:25;;;;;;;3.85;1.13;;;24.00;52.60;;;;;;4173174;28;19913;-51
2022/10/15 08:32:48;;;;;;;3.35;1.13;;;24.00;52.70;;;;;;4182912;28;20045;-52
2022/10/15 08:35:10;;;;;;;3.17;1.20;;;24.00;52.80;;;;;;4167841;28;20025;-52
2022/10/15 08:37:48;;;;;;;3.35;1.20;;;24.00;52.80;;;;;;4189171;28;20078;-51
2022/10/15 08:40:13;;;;;;;2.92;1.10;;;24.00;53.40;;;;;;4169198;28;20109;-53
2022/10/15 08:42:41;;;;;;;6.13;1.58;;;24.00;52.90;;;;;;4172760;28;20799;-48
2022/10/15 08:45:25;;;;;;;2.95;1.05;;;24.00;53.00;;;;;;4171440;28;20052;-52
2022/10/15 08:47:55;;;;;;;3.40;1.02;;;23.90;52.90;;;;;;4161397;28;20032;-52
2022/10/15 08:50:24;;;;;;;1.98;1.25;;;23.90;53.10;;;;;;4161545;28;20032;-51
2022/10/15 08:52:49;;;;;;;3.25;1.42;;;23.90;53.10;;;;;;4162361;28;20480;-52
2022/10/15 08:55:22;;;;;;;3.97;1.20;;;23.90;53.10;;;;;;4169380;28;20462;-50
2022/10/15 08:58:12;;;;;;;2.88;1.25;;;23.90;53.10;;;;;;4158179;28;20790;-48
2022/10/15 09:00:56;;;;;;;3.42;1.67;;;23.90;53.10;;;;;;4157047;28;20099;-51
2022/10/15 09:03:24;;;;;;;2.88;1.23;;;23.90;53.30;;;;;;4159917;28;20052;-48
2022/10/15 09:05:53;;;;;;;2.70;1.35;;;23.90;53.40;;;;;;4164829;28;20048;-49
2022/10/15 09:08:21;;;;;;;2.42;1.15;;;23.90;53.40;;;;;;4163554;28;20642;-53
2022/10/15 09:10:44;;;;;;;3.53;1.63;;;23.80;53.50;;;;;;4166590;28;20071;-52
2022/10/15 09:13:39;;;;;;;3.22;1.00;;;23.80;53.40;;;;;;4170273;28;20037;-52
2022/10/15 09:16:14;;;;;;;1.52;1.05;;;23.80;53.40;;;;;;4170129;28;20436;-51
2022/10/15 09:18:41;;;;;;;1.30;0.80;;;23.80;53.50;;;;;;4169864;28;20103;-50
2022/10/15 09:21:05;;;;;;;1.05;0.80;;;23.80;53.50;;;;;;4172471;28;20091;-51
2022/10/15 09:23:29;;;;;;;2.10;1.00;;;23.80;53.50;;;;;;4162367;28;20052;-53
2022/10/15 09:26:12;;;;;;;2.78;1.25;;;23.80;53.60;;;;;;4157429;28;20040;-46
2022/10/15 09:28:59;;;;;;;1.73;1.02;;;23.80;53.70;;;;;;4170576;28;20076;-48
2022/10/15 09:31:27;;;;;;;2.92;1.13;;;23.70;54.40;;;;;;4166578;28;20156;-47
2022/10/15 09:33:55;;;;;;;1.52;0.93;;;23.70;53.80;;;;;;4161694;28;20037;-51
2022/10/15 09:36:45;;;;;;;1.50;1.08;;;23.70;53.80;;;;;;4156131;28;20620;-50
2022/10/15 09:39:53;;;;;;;4.65;1.40;;;23.80;53.90;;;;;;4166808;28;20090;-52
2022/10/15 09:42:38;;;;;;;1.70;1.15;;;23.70;53.90;;;;;;4169549;28;20473;-49
2022/10/15 09:45:11;;;;;;;2.42;1.15;;;23.70;54.10;;;;;;4170560;28;20056;-51
2022/10/15 09:47:36;;;;;;;1.55;0.90;;;23.70;54.00;;;;;;4160010;28;20120;-53
2022/10/15 09:49:58;;;;;;;1.88;1.10;;;23.70;54.00;;;;;;4166388;28;20042;-53
2022/10/15 09:52:25;;;;;;;2.85;1.40;;;23.70;54.10;;;;;;4170955;28;20492;-49
2022/10/15 09:55:06;;;;;;;2.30;1.05;;;23.60;54.10;;;;;;4166221;28;20115;-50
2022/10/15 09:57:32;;;;;;;2.83;1.38;;;23.70;54.20;;;;;;4169742;28;20064;-52
2022/10/15 10:00:00;;;;;;;1.90;1.20;;;23.60;54.20;;;;;;4164216;28;20033;-51
2022/10/15 10:02:26;;;;;;;1.80;0.93;;;23.60;54.20;;;;;;4177893;28;20036;-48
2022/10/15 10:04:49;;;;;;;3.33;1.20;;;23.60;54.30;;;;;;4161283;28;20084;-49
2022/10/15 10:07:37;;;;;;;3.08;1.55;;;23.60;54.30;;;;;;4174965;28;20425;-51
2022/10/15 10:10:18;;;;;;;3.38;1.08;;;23.60;54.30;;;;;;4170774;28;20366;-51
2022/10/15 10:12:44;;;;;;;2.25;1.17;;;23.60;54.30;;;;;;4167417;28;20867;-53
2022/10/15 10:15:33;;;;;;;2.75;0.93;;;23.60;54.30;;;;;;4165554;28;20033;-52
2022/10/15 10:18:04;;;;;;;2.60;1.00;;;23.60;54.40;;;;;;4172371;28;20460;-50
2022/10/15 10:20:29;;;;;;;2.33;0.90;;;23.60;54.50;;;;;;4172925;28;20524;-51
2022/10/15 10:22:57;;;;;;;1.67;0.77;;;23.50;54.40;;;;;;4170644;28;20047;-51
2022/10/15 10:25:43;;;;;;;5.07;1.50;;;23.50;54.60;;;;;;4167615;28;20080;-54
2022/10/15 10:28:11;;;;;;;2.75;1.48;;;23.50;54.60;;;;;;4163855;28;20035;-51
2022/10/15 10:30:41;;;;;;;4.95;1.75;;;23.50;54.50;;;;;;4165852;28;20042;-53
2022/10/15 10:33:05;;;;;;;5.60;1.73;;;23.50;54.70;;;;;;4162576;28;20041;-49
2022/10/15 10:35:51;;;;;;;3.88;1.52;;;23.50;54.60;;;;;;4164815;28;20075;-53
2022/10/15 10:39:06;;;;;;;2.83;1.30;;;23.50;54.70;;;;;;4161194;28;20450;-53
2022/10/15 10:41:51;;;;;;;3.90;1.40;;;23.50;55.60;;;;;;4157055;28;20140;-50
2022/10/15 10:44:41;;;;;;;4.13;1.70;;;23.50;55.30;;;;;;4168801;28;20531;-50
2022/10/15 10:47:16;;;;;;;2.75;1.20;;;23.50;55.50;;;;;;4164702;28;20322;-50
2022/10/15 10:49:41;;;;;;;2.40;1.35;;;23.50;55.80;;;;;;4167988;28;20064;-54
2022/10/15 10:52:05;;;;;;;3.55;1.60;;;23.40;56.00;;;;;;4170117;28;20029;-51
2022/10/15 10:54:28;;;;;;;;;;;23.40;56.00;;;;;;4167100;28;20052;-55
2022/10/15 10:56:52;;;;;;;3.10;1.50;;;23.50;56.20;;;;;;4170768;28;19916;-53
2022/10/15 10:59:29;;;;;;;3.75;1.50;;;23.50;56.30;;;;;;4169608;28;20036;-54
2022/10/15 11:01:52;;;;;;;5.80;1.50;;;23.50;56.10;;;;;;4172062;28;20074;-51
2022/10/15 11:04:35;;;;;;;6.07;1.90;;;23.50;55.90;;;;;;4165390;28;20454;-54
2022/10/15 11:07:35;;;;;;;3.15;1.80;;;23.50;55.80;;;;;;4166739;28;20501;-54
2022/10/15 11:10:13;;;;;;;5.57;1.42;;;23.50;55.80;;;;;;4170807;28;20033;-49
2022/10/15 11:12:49;;;;;;;3.33;1.83;;;23.40;55.90;;;;;;4163022;28;20037;-51
2022/10/15 11:15:43;;;;;;;3.42;1.52;;;23.40;56.50;;;;;;4167468;28;20033;-49
2022/10/15 11:18:24;;;;;;;2.90;1.50;;;23.40;56.70;;;;;;4168621;28;20036;-48
2022/10/15 11:20:50;;;;;;;9.15;2.28;;;23.40;56.90;;;;;;4162658;28;20462;-53
2022/10/15 11:23:15;;;;;;;3.95;1.58;;;23.40;57.00;;;;;;4168716;28;20033;-50
2022/10/15 11:26:01;;;;;;;8.27;1.98;;;23.40;57.10;;;;;;4169932;28;20040;-48
2022/10/15 11:28:58;;;;;;;5.82;1.55;;;23.50;57.20;;;;;;4169741;28;20041;-52
2022/10/15 11:31:20;;;;;;;12.77;1.90;;;23.50;57.70;;;;;;4166320;28;20824;-54
2022/10/15 11:34:06;;;;;;;4.40;1.45;;;23.50;57.80;;;;;;4164462;28;20063;-54
2022/10/15 11:36:32;;;;;;;13.75;2.15;;;23.50;57.90;;;;;;4173931;28;20040;-51
2022/10/15 11:39:20;;;;;;;4.32;1.60;;;23.40;58.00;;;;;;4172757;28;20067;-53
2022/10/15 11:42:19;;;;;;;4.30;2.00;;;23.50;57.90;;;;;;4168991;28;20132;-53
2022/10/15 11:45:06;;;;;;;6.47;1.90;;;23.50;58.10;;;;;;4165892;28;20068;-51
2022/10/15 11:47:44;;;;;;;3.95;1.60;;;23.50;58.20;;;;;;4165551;28;20396;-53
2022/10/15 11:50:25;;;;;;;4.22;1.90;;;23.50;58.20;;;;;;4166587;28;20485;-49
2022/10/15 11:53:14;;;;;;;7.45;1.67;;;23.50;58.20;;;;;;4164582;28;20416;-49
2022/10/15 11:55:48;;;;;;;7.55;1.58;;;23.50;58.40;;;;;;4167205;28;20060;-51
2022/10/15 11:58:29;;;;;;;6.25;1.35;;;23.50;58.40;;;;;;4171824;28;20056;-52
2022/10/15 12:00:55;;;;;;;4.95;1.50;;;23.40;58.40;;;;;;4165173;28;20040;-48
2022/10/15 12:03:30;;;;;;;5.70;2.03;;;23.50;58.50;;;;;;4163455;28;20214;-55
2022/10/15 12:06:04;;;;;;;4.07;1.67;;;23.50;58.50;;;;;;4163113;28;20446;-50
2022/10/15 12:08:33;;;;;;;8.35;1.77;;;23.50;59.20;;;;;;4168533;28;20037;-50
2022/10/15 12:11:29;;;;;;;3.22;1.70;;;23.50;58.60;;;;;;4167592;28;21176;-52
2022/10/15 12:14:16;;;;;;;6.40;2.10;;;23.50;58.50;;;;;;4174051;28;20037;-57
2022/10/15 12:16:46;;;;;;;30.48;4.10;;;23.60;58.60;;;;;;4165362;28;20041;-51
2022/10/15 12:19:36;;;;;;;14.70;2.58;;;23.60;58.80;;;;;;4162235;28;20400;-54
2022/10/15 12:22:05;;;;;;;36.20;3.40;;;23.60;58.80;;;;;;4163407;28;20124;-51
2022/10/15 12:24:47;;;;;;;20.73;2.97;;;23.60;58.70;;;;;;4158568;28;20107;-50
2022/10/15 12:27:19;;;;;;;17.00;2.65;;;23.60;58.90;;;;;;4168072;28;20555;-51
2022/10/15 12:29:41;;;;;;;12.02;2.60;;;23.60;58.80;;;;;;4168579;28;20046;-48
2022/10/15 12:32:04;;;;;;;11.38;2.40;;;23.60;58.80;;;;;;4162599;28;20026;-51
2022/10/15 12:34:42;;;;;;;8.57;2.10;;;23.60;58.70;;;;;;4169753;28;20044;-50
2022/10/15 12:37:14;;;;;;;11.57;2.15;;;23.60;58.60;;;;;;4169088;28;20749;-47
2022/10/15 12:39:39;;;;;;;8.18;2.25;;;23.60;58.70;;;;;;4165534;28;20045;-52
2022/10/15 12:42:02;;;;;;;13.77;1.92;;;23.60;58.70;;;;;;4164734;28;20120;-49
2022/10/15 12:44:30;;;;;;;14.15;2.30;;;23.60;58.70;;;;;;4166477;28;20053;-47
2022/10/15 12:46:53;;;;;;;5.88;1.98;;;23.60;58.60;;;;;;4164405;28;20441;-54
2022/10/15 12:49:29;;;;;;;6.32;2.17;;;23.60;58.70;;;;;;4163638;28;20036;-48
2022/10/15 12:51:53;;;;;;;9.80;2.00;;;23.60;58.60;;;;;;4171363;28;20051;-55